sensor_id;sensor_type;location;lat;lon;timestamp;pressure;altitude;pressure_sealevel;temperature;humidity
13407;BME280;6774;48.208;10.766;2023-03-19T00:00:49;95199.28;;;8.87;74.90
13407;BME280;6774;48.208;10.766;2023-03-19T00:03:16;95208.00;;;8.88;74.21
13407;BME280;6774;48.208;10.766;2023-03-19T00:05:50;95209.63;;;8.89;74.49
13407;BME280;6774;48.208;10.766;2023-03-19T00:08:18;95207.34;;;8.86;74.56
13407;BME280;6774;48.208;10.766;2023-03-19T00:10:46;95207.53;;;8.84;73.96
13407;BME280;6774;48.208;10.766;2023-03-19T00:13:15;95204.72;;;8.86;74.46
13407;BME280;6774;48.208;10.766;2023-03-19T00:15:46;95212.63;;;8.86;74.60
13407;BME280;6774;48.208;10.766;2023-03-19T00:18:14;95210.63;;;8.88;74.21
13407;BME280;6774;48.208;10.766;2023-03-19T00:20:42;95216.53;;;8.75;74.49
13407;BME280;6774;48.208;10.766;2023-03-19T00:23:09;95210.66;;;8.58;74.28
13407;BME280;6774;48.208;10.766;2023-03-19T00:25:37;95214.66;;;8.54;75.06
13407;BME280;6774;48.208;10.766;2023-03-19T00:28:05;95217.38;;;8.46;75.29
13407;BME280;6774;48.208;10.766;2023-03-19T00:30:35;95213.63;;;8.25;76.37
13407;BME280;6774;48.208;10.766;2023-03-19T00:33:02;95224.22;;;8.17;75.93
13407;BME280;6774;48.208;10.766;2023-03-19T00:35:30;95233.50;;;7.90;76.71
13407;BME280;6774;48.208;10.766;2023-03-19T00:37:59;95241.69;;;7.50;78.82
13407;BME280;6774;48.208;10.766;2023-03-19T00:40:27;95234.09;;;7.55;79.26
13407;BME280;6774;48.208;10.766;2023-03-19T00:42:54;95231.66;;;7.53;79.52
13407;BME280;6774;48.208;10.766;2023-03-19T00:45:22;95235.97;;;7.46;80.24
13407;BME280;6774;48.208;10.766;2023-03-19T00:47:51;95231.41;;;7.40;80.51
13407;BME280;6774;48.208;10.766;2023-03-19T00:50:19;95224.78;;;7.52;80.34
13407;BME280;6774;48.208;10.766;2023-03-19T00:52:47;95230.47;;;7.56;80.12
13407;BME280;6774;48.208;10.766;2023-03-19T00:55:14;95232.25;;;7.63;79.80
13407;BME280;6774;48.208;10.766;2023-03-19T00:57:42;95240.16;;;7.55;80.03
13407;BME280;6774;48.208;10.766;2023-03-19T01:00:11;95233.97;;;7.48;81.69
13407;BME280;6774;48.208;10.766;2023-03-19T01:02:39;95235.28;;;7.52;81.47
13407;BME280;6774;48.208;10.766;2023-03-19T01:05:08;95232.59;;;7.60;81.43
13407;BME280;6774;48.208;10.766;2023-03-19T01:07:36;95225.81;;;7.66;80.61
13407;BME280;6774;48.208;10.766;2023-03-19T01:10:05;95220.69;;;7.73;80.44
13407;BME280;6774;48.208;10.766;2023-03-19T01:12:33;95230.13;;;7.82;80.36
13407;BME280;6774;48.208;10.766;2023-03-19T01:15:01;95226.78;;;7.88;80.25
13407;BME280;6774;48.208;10.766;2023-03-19T01:17:29;95227.88;;;7.93;80.12
13407;BME280;6774;48.208;10.766;2023-03-19T01:19:56;95222.72;;;8.00;80.31
13407;BME280;6774;48.208;10.766;2023-03-19T01:22:25;95220.75;;;8.02;79.71
13407;BME280;6774;48.208;10.766;2023-03-19T01:24:57;95227.91;;;8.08;79.67
13407;BME280;6774;48.208;10.766;2023-03-19T01:27:25;95224.91;;;8.11;80.15
13407;BME280;6774;48.208;10.766;2023-03-19T01:29:53;95236.44;;;8.10;79.46
13407;BME280;6774;48.208;10.766;2023-03-19T01:32:46;95234.44;;;8.12;79.69
13407;BME280;6774;48.208;10.766;2023-03-19T01:35:35;95226.56;;;8.12;79.72
13407;BME280;6774;48.208;10.766;2023-03-19T01:38:04;95225.09;;;8.10;79.46
13407;BME280;6774;48.208;10.766;2023-03-19T01:40:33;95226.91;;;8.09;79.13
13407;BME280;6774;48.208;10.766;2023-03-19T01:43:14;95224.00;;;8.04;79.35
13407;BME280;6774;48.208;10.766;2023-03-19T01:45:54;95223.50;;;7.86;80.03
13407;BME280;6774;48.208;10.766;2023-03-19T01:48:38;95219.53;;;7.90;80.19
13407;BME280;6774;48.208;10.766;2023-03-19T01:51:14;95222.00;;;7.91;79.83
13407;BME280;6774;48.208;10.766;2023-03-19T01:54:10;95228.44;;;7.89;79.79
13407;BME280;6774;48.208;10.766;2023-03-19T01:57:03;95223.81;;;7.91;79.76
13407;BME280;6774;48.208;10.766;2023-03-19T02:00:03;95232.31;;;7.93;80.23
13407;BME280;6774;48.208;10.766;2023-03-19T02:02:42;95229.34;;;8.11;80.01
13407;BME280;6774;48.208;10.766;2023-03-19T02:05:25;95228.03;;;8.30;79.54
13407;BME280;6774;48.208;10.766;2023-03-19T02:08:02;95227.25;;;8.44;78.65
13407;BME280;6774;48.208;10.766;2023-03-19T02:10:33;95222.63;;;8.46;78.41
13407;BME280;6774;48.208;10.766;2023-03-19T02:13:02;95219.91;;;8.54;78.04
13407;BME280;6774;48.208;10.766;2023-03-19T02:15:30;95228.44;;;8.56;78.19
13407;BME280;6774;48.208;10.766;2023-03-19T02:17:58;95225.53;;;8.66;77.60
13407;BME280;6774;48.208;10.766;2023-03-19T02:20:30;95216.88;;;8.87;77.03
13407;BME280;6774;48.208;10.766;2023-03-19T02:23:04;95220.56;;;9.07;76.10
13407;BME280;6774;48.208;10.766;2023-03-19T02:25:39;95219.09;;;9.19;76.03
13407;BME280;6774;48.208;10.766;2023-03-19T02:28:12;95222.50;;;9.34;74.99
13407;BME280;6774;48.208;10.766;2023-03-19T02:30:43;95223.81;;;9.45;74.89
13407;BME280;6774;48.208;10.766;2023-03-19T02:33:12;95233.88;;;9.41;75.45
13407;BME280;6774;48.208;10.766;2023-03-19T02:35:42;95236.88;;;9.17;75.90
13407;BME280;6774;48.208;10.766;2023-03-19T02:38:14;95231.34;;;9.12;76.67
13407;BME280;6774;48.208;10.766;2023-03-19T02:40:44;95227.81;;;9.05;76.32
13407;BME280;6774;48.208;10.766;2023-03-19T02:43:16;95240.09;;;8.98;77.14
13407;BME280;6774;48.208;10.766;2023-03-19T02:45:43;95244.47;;;8.91;78.03
13407;BME280;6774;48.208;10.766;2023-03-19T02:48:11;95242.22;;;8.88;78.87
13407;BME280;6774;48.208;10.766;2023-03-19T02:50:39;95244.38;;;8.99;78.73
13407;BME280;6774;48.208;10.766;2023-03-19T02:53:06;95253.59;;;9.24;76.90
13407;BME280;6774;48.208;10.766;2023-03-19T02:55:35;95245.66;;;9.60;75.83
13407;BME280;6774;48.208;10.766;2023-03-19T02:58:03;95239.69;;;9.73;74.78
13407;BME280;6774;48.208;10.766;2023-03-19T03:00:32;95237.06;;;9.73;75.07
13407;BME280;6774;48.208;10.766;2023-03-19T03:03:02;95232.16;;;9.70;75.56
13407;BME280;6774;48.208;10.766;2023-03-19T03:05:32;95234.94;;;9.62;76.08
13407;BME280;6774;48.208;10.766;2023-03-19T03:08:00;95240.66;;;9.51;76.57
13407;BME280;6774;48.208;10.766;2023-03-19T03:10:28;95241.69;;;9.50;76.98
13407;BME280;6774;48.208;10.766;2023-03-19T03:12:57;95254.09;;;9.34;77.02
13407;BME280;6774;48.208;10.766;2023-03-19T03:15:26;95244.28;;;9.28;77.42
13407;BME280;6774;48.208;10.766;2023-03-19T03:17:55;95248.88;;;9.05;77.97
13407;BME280;6774;48.208;10.766;2023-03-19T03:20:23;95253.25;;;8.98;78.75
13407;BME280;6774;48.208;10.766;2023-03-19T03:22:51;95250.09;;;8.88;78.75
13407;BME280;6774;48.208;10.766;2023-03-19T03:25:19;95259.09;;;8.78;79.36
13407;BME280;6774;48.208;10.766;2023-03-19T03:27:48;95258.19;;;8.71;79.76
13407;BME280;6774;48.208;10.766;2023-03-19T03:30:16;95264.16;;;8.65;79.61
13407;BME280;6774;48.208;10.766;2023-03-19T03:32:44;95270.13;;;8.59;80.02
13407;BME280;6774;48.208;10.766;2023-03-19T03:35:13;95280.47;;;8.46;81.50
13407;BME280;6774;48.208;10.766;2023-03-19T03:37:48;95281.19;;;8.40;81.76
13407;BME280;6774;48.208;10.766;2023-03-19T03:40:16;95278.97;;;8.28;82.50
13407;BME280;6774;48.208;10.766;2023-03-19T03:42:44;95279.94;;;8.36;82.68
13407;BME280;6774;48.208;10.766;2023-03-19T03:45:13;95288.66;;;8.51;82.75
13407;BME280;6774;48.208;10.766;2023-03-19T03:47:43;95295.34;;;8.68;82.04
13407;BME280;6774;48.208;10.766;2023-03-19T03:50:11;95289.00;;;8.77;81.42
13407;BME280;6774;48.208;10.766;2023-03-19T03:52:41;95292.63;;;8.76;80.88
13407;BME280;6774;48.208;10.766;2023-03-19T03:55:09;95296.34;;;8.67;82.08
13407;BME280;6774;48.208;10.766;2023-03-19T03:57:37;95297.63;;;8.86;81.35
13407;BME280;6774;48.208;10.766;2023-03-19T04:00:06;95300.97;;;8.95;80.75
13407;BME280;6774;48.208;10.766;2023-03-19T04:02:41;95310.78;;;9.01;80.26
13407;BME280;6774;48.208;10.766;2023-03-19T04:05:13;95315.78;;;9.10;80.26
13407;BME280;6774;48.208;10.766;2023-03-19T04:07:42;95317.78;;;8.94;80.57
13407;BME280;6774;48.208;10.766;2023-03-19T04:10:11;95315.47;;;10.14;77.40
13407;BME280;6774;48.208;10.766;2023-03-19T04:12:40;95318.84;;;9.86;76.23
13407;BME280;6774;48.208;10.766;2023-03-19T04:15:09;95324.22;;;9.06;80.17
13407;BME280;6774;48.208;10.766;2023-03-19T04:17:40;95327.31;;;9.60;77.93
13407;BME280;6774;48.208;10.766;2023-03-19T04:20:09;95331.31;;;8.91;80.67
13407;BME280;6774;48.208;10.766;2023-03-19T04:22:38;95338.47;;;8.82;81.64
13407;BME280;6774;48.208;10.766;2023-03-19T04:25:09;95340.50;;;8.57;83.04
13407;BME280;6774;48.208;10.766;2023-03-19T04:27:38;95340.38;;;8.73;82.37
13407;BME280;6774;48.208;10.766;2023-03-19T04:30:08;95340.09;;;8.83;82.07
13407;BME280;6774;48.208;10.766;2023-03-19T04:32:37;95346.72;;;8.94;81.35
13407;BME280;6774;48.208;10.766;2023-03-19T04:35:05;95348.72;;;8.92;81.01
13407;BME280;6774;48.208;10.766;2023-03-19T04:37:33;95354.16;;;9.05;80.50
13407;BME280;6774;48.208;10.766;2023-03-19T04:40:02;95357.16;;;9.17;80.78
13407;BME280;6774;48.208;10.766;2023-03-19T04:42:35;95363.78;;;9.27;80.88
13407;BME280;6774;48.208;10.766;2023-03-19T04:45:07;95368.50;;;9.17;80.60
13407;BME280;6774;48.208;10.766;2023-03-19T04:47:35;95369.78;;;9.21;80.49
13407;BME280;6774;48.208;10.766;2023-03-19T04:50:04;95372.69;;;9.26;80.19
13407;BME280;6774;48.208;10.766;2023-03-19T04:52:33;95369.31;;;9.18;79.98
13407;BME280;6774;48.208;10.766;2023-03-19T04:55:03;95371.22;;;9.38;79.43
13407;BME280;6774;48.208;10.766;2023-03-19T04:57:42;95377.09;;;9.55;79.05
13407;BME280;6774;48.208;10.766;2023-03-19T05:00:11;95392.47;;;9.52;78.62
13407;BME280;6774;48.208;10.766;2023-03-19T05:02:42;95397.75;;;9.52;78.50
13407;BME280;6774;48.208;10.766;2023-03-19T05:05:09;95399.13;;;9.69;77.64
13407;BME280;6774;48.208;10.766;2023-03-19T05:07:39;95400.03;;;9.76;76.29
13407;BME280;6774;48.208;10.766;2023-03-19T05:10:10;95401.84;;;9.90;75.70
13407;BME280;6774;48.208;10.766;2023-03-19T05:12:38;95401.06;;;9.96;75.70
13407;BME280;6774;48.208;10.766;2023-03-19T05:15:10;95405.38;;;9.97;75.77
13407;BME280;6774;48.208;10.766;2023-03-19T05:17:44;95411.19;;;9.93;74.94
13407;BME280;6774;48.208;10.766;2023-03-19T05:20:20;95408.34;;;9.94;75.56
13407;BME280;6774;48.208;10.766;2023-03-19T05:23:03;95417.66;;;9.90;75.52
13407;BME280;6774;48.208;10.766;2023-03-19T05:25:39;95418.91;;;9.94;75.63
13407;BME280;6774;48.208;10.766;2023-03-19T05:28:10;95417.91;;;9.95;75.63
13407;BME280;6774;48.208;10.766;2023-03-19T05:30:40;95423.44;;;10.01;75.72
13407;BME280;6774;48.208;10.766;2023-03-19T05:33:28;95427.09;;;10.00;76.34
13407;BME280;6774;48.208;10.766;2023-03-19T05:35:59;95427.31;;;10.05;76.11
13407;BME280;6774;48.208;10.766;2023-03-19T05:38:42;95438.13;;;10.10;76.31
13407;BME280;6774;48.208;10.766;2023-03-19T05:41:16;95445.78;;;10.05;76.26
13407;BME280;6774;48.208;10.766;2023-03-19T05:43:53;95446.25;;;10.08;76.56
13407;BME280;6774;48.208;10.766;2023-03-19T05:46:41;95454.16;;;10.08;76.63
13407;BME280;6774;48.208;10.766;2023-03-19T05:49:10;95460.47;;;10.14;74.70
13407;BME280;6774;48.208;10.766;2023-03-19T05:51:38;95458.84;;;10.13;75.07
13407;BME280;6774;48.208;10.766;2023-03-19T05:54:06;95459.63;;;10.07;75.57
13407;BME280;6774;48.208;10.766;2023-03-19T05:56:51;95464.88;;;10.07;76.00
13407;BME280;6774;48.208;10.766;2023-03-19T05:59:30;95459.66;;;10.13;76.03
13407;BME280;6774;48.208;10.766;2023-03-19T06:02:14;95472.97;;;11.33;72.15
13407;BME280;6774;48.208;10.766;2023-03-19T06:04:43;95469.94;;;10.23;75.30
13407;BME280;6774;48.208;10.766;2023-03-19T06:07:11;95474.97;;;10.03;76.59
13407;BME280;6774;48.208;10.766;2023-03-19T06:09:39;95477.75;;;9.80;77.98
13407;BME280;6774;48.208;10.766;2023-03-19T06:12:09;95483.91;;;9.73;79.34
13407;BME280;6774;48.208;10.766;2023-03-19T06:14:43;95495.00;;;9.68;79.44
13407;BME280;6774;48.208;10.766;2023-03-19T06:17:34;95489.81;;;9.60;81.01
13407;BME280;6774;48.208;10.766;2023-03-19T06:20:06;95503.66;;;9.62;81.00
13407;BME280;6774;48.208;10.766;2023-03-19T06:22:36;95488.63;;;9.77;81.02
13407;BME280;6774;48.208;10.766;2023-03-19T06:25:04;95491.19;;;9.71;81.96
13407;BME280;6774;48.208;10.766;2023-03-19T06:27:35;95488.72;;;9.69;82.18
13407;BME280;6774;48.208;10.766;2023-03-19T06:30:18;95493.34;;;9.67;82.55
13407;BME280;6774;48.208;10.766;2023-03-19T06:32:47;95502.56;;;9.71;83.00
13407;BME280;6774;48.208;10.766;2023-03-19T06:35:16;95501.38;;;9.74;83.71
13407;BME280;6774;48.208;10.766;2023-03-19T06:37:46;95505.97;;;9.86;83.80
13407;BME280;6774;48.208;10.766;2023-03-19T06:40:14;95516.53;;;9.86;83.80
13407;BME280;6774;48.208;10.766;2023-03-19T06:42:43;95505.63;;;9.89;84.48
13407;BME280;6774;48.208;10.766;2023-03-19T06:45:15;95508.00;;;9.84;84.99
13407;BME280;6774;48.208;10.766;2023-03-19T06:47:44;95511.72;;;9.90;84.79
13407;BME280;6774;48.208;10.766;2023-03-19T06:50:15;95506.72;;;9.80;85.57
13407;BME280;6774;48.208;10.766;2023-03-19T06:52:43;95503.09;;;9.81;85.52
13407;BME280;6774;48.208;10.766;2023-03-19T06:55:12;95513.78;;;9.94;85.31
13407;BME280;6774;48.208;10.766;2023-03-19T06:57:39;95512.44;;;9.98;85.81
13407;BME280;6774;48.208;10.766;2023-03-19T07:00:08;95507.34;;;9.97;85.57
13407;BME280;6774;48.208;10.766;2023-03-19T07:02:37;95513.44;;;9.97;85.48
13407;BME280;6774;48.208;10.766;2023-03-19T07:05:06;95516.63;;;10.08;85.18
13407;BME280;6774;48.208;10.766;2023-03-19T07:07:35;95512.78;;;10.10;85.14
13407;BME280;6774;48.208;10.766;2023-03-19T07:10:03;95520.13;;;10.15;85.15
13407;BME280;6774;48.208;10.766;2023-03-19T07:12:32;95519.31;;;10.14;84.86
13407;BME280;6774;48.208;10.766;2023-03-19T07:14:59;95525.16;;;10.24;84.94
13407;BME280;6774;48.208;10.766;2023-03-19T07:17:27;95524.59;;;10.29;84.30
13407;BME280;6774;48.208;10.766;2023-03-19T07:19:55;95524.50;;;10.37;83.81
13407;BME280;6774;48.208;10.766;2023-03-19T07:22:22;95531.84;;;10.42;83.45
13407;BME280;6774;48.208;10.766;2023-03-19T07:24:52;95539.31;;;10.38;83.91
13407;BME280;6774;48.208;10.766;2023-03-19T07:27:20;95528.13;;;10.36;84.12
13407;BME280;6774;48.208;10.766;2023-03-19T07:29:49;95532.50;;;10.29;84.34
13407;BME280;6774;48.208;10.766;2023-03-19T07:32:16;95532.78;;;10.34;84.71
13407;BME280;6774;48.208;10.766;2023-03-19T07:34:44;95540.31;;;10.37;85.56
13407;BME280;6774;48.208;10.766;2023-03-19T07:37:12;95536.16;;;10.28;86.68
13407;BME280;6774;48.208;10.766;2023-03-19T07:39:39;95533.03;;;10.39;87.18
13407;BME280;6774;48.208;10.766;2023-03-19T07:42:08;95528.94;;;10.37;87.53
13407;BME280;6774;48.208;10.766;2023-03-19T07:44:38;95534.66;;;10.40;87.58
13407;BME280;6774;48.208;10.766;2023-03-19T07:47:06;95532.06;;;10.62;87.20
13407;BME280;6774;48.208;10.766;2023-03-19T07:49:53;95531.88;;;10.85;85.38
13407;BME280;6774;48.208;10.766;2023-03-19T07:52:21;95534.78;;;10.90;86.24
13407;BME280;6774;48.208;10.766;2023-03-19T07:54:49;95544.66;;;11.02;84.89
13407;BME280;6774;48.208;10.766;2023-03-19T07:57:19;95547.09;;;11.04;85.00
13407;BME280;6774;48.208;10.766;2023-03-19T07:59:46;95540.81;;;11.05;84.79
13407;BME280;6774;48.208;10.766;2023-03-19T08:02:16;95545.06;;;11.06;83.33
13407;BME280;6774;48.208;10.766;2023-03-19T08:04:47;95546.97;;;11.12;83.29
13407;BME280;6774;48.208;10.766;2023-03-19T08:07:15;95544.66;;;11.02;82.89
13407;BME280;6774;48.208;10.766;2023-03-19T08:09:43;95544.25;;;11.05;82.72
13407;BME280;6774;48.208;10.766;2023-03-19T08:12:11;95537.59;;;11.09;82.90
13407;BME280;6774;48.208;10.766;2023-03-19T08:14:41;95540.63;;;11.06;83.86
13407;BME280;6774;48.208;10.766;2023-03-19T08:17:08;95547.91;;;11.04;83.19
13407;BME280;6774;48.208;10.766;2023-03-19T08:19:36;95547.72;;;11.06;83.50
13407;BME280;6774;48.208;10.766;2023-03-19T08:22:04;95546.03;;;11.20;83.26
13407;BME280;6774;48.208;10.766;2023-03-19T08:24:33;95546.22;;;11.18;83.33
13407;BME280;6774;48.208;10.766;2023-03-19T08:27:00;95554.31;;;10.95;83.52
13407;BME280;6774;48.208;10.766;2023-03-19T08:29:29;95557.09;;;10.87;84.37
13407;BME280;6774;48.208;10.766;2023-03-19T08:31:58;95552.69;;;10.94;85.15
13407;BME280;6774;48.208;10.766;2023-03-19T08:34:27;95554.31;;;10.95;83.97
13407;BME280;6774;48.208;10.766;2023-03-19T08:36:55;95560.50;;;11.02;84.14
13407;BME280;6774;48.208;10.766;2023-03-19T08:39:22;95558.47;;;11.04;85.05
13407;BME280;6774;48.208;10.766;2023-03-19T08:41:50;95563.63;;;10.91;84.29
13407;BME280;6774;48.208;10.766;2023-03-19T08:44:18;95560.63;;;11.16;84.00
13407;BME280;6774;48.208;10.766;2023-03-19T08:46:46;95566.00;;;11.29;83.29
13407;BME280;6774;48.208;10.766;2023-03-19T08:49:15;95567.16;;;11.20;82.72
13407;BME280;6774;48.208;10.766;2023-03-19T08:51:43;95569.66;;;11.28;82.61
13407;BME280;6774;48.208;10.766;2023-03-19T08:54:10;95573.41;;;11.40;82.85
13407;BME280;6774;48.208;10.766;2023-03-19T08:56:39;95566.84;;;11.57;82.71
13407;BME280;6774;48.208;10.766;2023-03-19T08:59:07;95569.59;;;11.71;82.33
13407;BME280;6774;48.208;10.766;2023-03-19T09:01:35;95577.75;;;11.76;81.95
13407;BME280;6774;48.208;10.766;2023-03-19T09:04:03;95566.06;;;11.85;80.69
13407;BME280;6774;48.208;10.766;2023-03-19T09:06:32;95567.13;;;11.97;79.90
13407;BME280;6774;48.208;10.766;2023-03-19T09:09:01;95578.03;;;11.81;80.57
13407;BME280;6774;48.208;10.766;2023-03-19T09:11:28;95574.72;;;12.07;80.26
13407;BME280;6774;48.208;10.766;2023-03-19T09:13:56;95571.97;;;12.21;79.76
13407;BME280;6774;48.208;10.766;2023-03-19T09:16:24;95575.88;;;12.32;79.14
13407;BME280;6774;48.208;10.766;2023-03-19T09:18:52;95582.28;;;12.58;79.07
13407;BME280;6774;48.208;10.766;2023-03-19T09:21:22;95581.91;;;12.67;77.61
13407;BME280;6774;48.208;10.766;2023-03-19T09:23:51;95584.03;;;12.98;75.06
13407;BME280;6774;48.208;10.766;2023-03-19T09:26:18;95586.19;;;13.36;74.30
13407;BME280;6774;48.208;10.766;2023-03-19T09:28:46;95576.38;;;13.70;73.94
13407;BME280;6774;48.208;10.766;2023-03-19T09:31:14;95573.06;;;14.07;71.08
13407;BME280;6774;48.208;10.766;2023-03-19T09:33:41;95572.41;;;14.45;70.11
13407;BME280;6774;48.208;10.766;2023-03-19T09:36:09;95566.09;;;14.84;68.12
13407;BME280;6774;48.208;10.766;2023-03-19T09:38:37;95560.38;;;15.19;66.96
13407;BME280;6774;48.208;10.766;2023-03-19T09:41:09;95561.09;;;15.01;64.52
13407;BME280;6774;48.208;10.766;2023-03-19T09:43:59;95566.41;;;15.01;65.39
13407;BME280;6774;48.208;10.766;2023-03-19T09:46:32;95573.69;;;15.12;63.19
13407;BME280;6774;48.208;10.766;2023-03-19T09:49:09;95568.84;;;15.34;63.76
13407;BME280;6774;48.208;10.766;2023-03-19T09:51:44;95569.16;;;15.44;62.69
13407;BME280;6774;48.208;10.766;2023-03-19T09:54:24;95568.34;;;15.19;62.20
13407;BME280;6774;48.208;10.766;2023-03-19T09:56:54;95567.03;;;14.96;62.78
13407;BME280;6774;48.208;10.766;2023-03-19T09:59:24;95557.44;;;14.95;61.07
13407;BME280;6774;48.208;10.766;2023-03-19T10:01:57;95563.03;;;14.80;63.99
13407;BME280;6774;48.208;10.766;2023-03-19T10:04:40;95556.47;;;14.38;62.76
13407;BME280;6774;48.208;10.766;2023-03-19T10:07:23;95563.50;;;14.71;62.47
13407;BME280;6774;48.208;10.766;2023-03-19T10:10:05;95562.66;;;14.77;62.33
13407;BME280;6774;48.208;10.766;2023-03-19T10:12:44;95548.28;;;14.91;63.04
13407;BME280;6774;48.208;10.766;2023-03-19T10:15:18;95557.00;;;14.60;64.87
13407;BME280;6774;48.208;10.766;2023-03-19T10:17:57;95559.50;;;14.48;63.20
13407;BME280;6774;48.208;10.766;2023-03-19T10:20:43;95563.53;;;14.64;63.88
13407;BME280;6774;48.208;10.766;2023-03-19T10:23:30;95562.22;;;14.80;62.58
13407;BME280;6774;48.208;10.766;2023-03-19T10:26:02;95560.31;;;14.56;62.17
13407;BME280;6774;48.208;10.766;2023-03-19T10:28:32;95551.59;;;14.80;61.73
13407;BME280;6774;48.208;10.766;2023-03-19T10:31:09;95554.31;;;15.05;61.67
13407;BME280;6774;48.208;10.766;2023-03-19T10:33:42;95549.66;;;15.00;60.83
13407;BME280;6774;48.208;10.766;2023-03-19T10:36:12;95546.66;;;15.47;60.36
13407;BME280;6774;48.208;10.766;2023-03-19T10:38:42;95544.25;;;15.70;58.79
13407;BME280;6774;48.208;10.766;2023-03-19T10:41:19;95545.03;;;15.96;57.45
13407;BME280;6774;48.208;10.766;2023-03-19T10:43:53;95548.28;;;15.98;57.66
13407;BME280;6774;48.208;10.766;2023-03-19T10:46:21;95551.44;;;15.88;58.10
13407;BME280;6774;48.208;10.766;2023-03-19T10:48:49;95541.53;;;15.77;58.03
13407;BME280;6774;48.208;10.766;2023-03-19T10:51:20;95544.47;;;15.69;58.77
13407;BME280;6774;48.208;10.766;2023-03-19T10:53:51;95537.38;;;15.81;58.49
13407;BME280;6774;48.208;10.766;2023-03-19T10:56:21;95536.72;;;15.67;58.11
13407;BME280;6774;48.208;10.766;2023-03-19T10:59:02;95538.09;;;15.70;59.25
13407;BME280;6774;48.208;10.766;2023-03-19T11:01:32;95539.03;;;15.82;60.12
13407;BME280;6774;48.208;10.766;2023-03-19T11:04:10;95541.69;;;15.82;57.85
13407;BME280;6774;48.208;10.766;2023-03-19T11:06:39;95535.75;;;15.80;59.46
13407;BME280;6774;48.208;10.766;2023-03-19T11:09:13;95539.03;;;15.82;59.36
13407;BME280;6774;48.208;10.766;2023-03-19T11:11:46;95531.25;;;15.80;59.29
13407;BME280;6774;48.208;10.766;2023-03-19T11:14:20;95529.28;;;15.94;59.56
13407;BME280;6774;48.208;10.766;2023-03-19T11:16:53;95525.75;;;16.00;57.51
13407;BME280;6774;48.208;10.766;2023-03-19T11:19:23;95532.47;;;16.03;57.54
13407;BME280;6774;48.208;10.766;2023-03-19T11:22:07;95517.31;;;16.21;57.88
13407;BME280;6774;48.208;10.766;2023-03-19T11:24:36;95517.59;;;16.50;57.10
13407;BME280;6774;48.208;10.766;2023-03-19T11:27:05;95515.94;;;16.67;56.86
13407;BME280;6774;48.208;10.766;2023-03-19T11:29:36;95507.34;;;16.84;56.68
13407;BME280;6774;48.208;10.766;2023-03-19T11:32:13;95514.97;;;17.10;56.99
13407;BME280;6774;48.208;10.766;2023-03-19T11:34:51;95512.50;;;17.09;55.20
13407;BME280;6774;48.208;10.766;2023-03-19T11:37:26;95501.81;;;16.97;54.39
13407;BME280;6774;48.208;10.766;2023-03-19T11:40:04;95502.47;;;17.22;54.42
13407;BME280;6774;48.208;10.766;2023-03-19T11:42:43;95493.66;;;17.33;54.47
13407;BME280;6774;48.208;10.766;2023-03-19T11:45:23;95485.00;;;17.73;54.66
13407;BME280;6774;48.208;10.766;2023-03-19T11:48:01;95482.56;;;18.07;53.21
13407;BME280;6774;48.208;10.766;2023-03-19T11:50:38;95487.81;;;18.42;51.83
13407;BME280;6774;48.208;10.766;2023-03-19T11:53:18;95487.13;;;18.35;51.90
13407;BME280;6774;48.208;10.766;2023-03-19T11:55:55;95481.56;;;18.36;51.83
13407;BME280;6774;48.208;10.766;2023-03-19T11:58:53;95485.84;;;18.37;52.76
13407;BME280;6774;48.208;10.766;2023-03-19T12:01:40;95477.63;;;18.27;52.38
13407;BME280;6774;48.208;10.766;2023-03-19T12:04:35;95470.47;;;18.56;52.41
13407;BME280;6774;48.208;10.766;2023-03-19T12:07:16;95474.78;;;18.45;52.04
13407;BME280;6774;48.208;10.766;2023-03-19T12:09:54;95468.63;;;18.45;51.64
13407;BME280;6774;48.208;10.766;2023-03-19T12:12:26;95465.97;;;18.05;51.71
13407;BME280;6774;48.208;10.766;2023-03-19T12:15:04;95471.19;;;18.00;51.25
13407;BME280;6774;48.208;10.766;2023-03-19T12:17:54;95467.22;;;18.14;51.68
13407;BME280;6774;48.208;10.766;2023-03-19T12:20:31;95463.91;;;18.35;50.67
13407;BME280;6774;48.208;10.766;2023-03-19T12:23:06;95467.81;;;18.56;50.76
13407;BME280;6774;48.208;10.766;2023-03-19T12:25:57;95454.41;;;19.30;51.34
13407;BME280;6774;48.208;10.766;2023-03-19T12:28:32;95455.84;;;19.54;48.28
13407;BME280;6774;48.208;10.766;2023-03-19T12:31:30;95447.66;;;19.27;48.69
13407;BME280;6774;48.208;10.766;2023-03-19T12:34:16;95443.19;;;18.99;48.00
13407;BME280;6774;48.208;10.766;2023-03-19T12:36:49;95455.44;;;19.29;50.22
13407;BME280;6774;48.208;10.766;2023-03-19T12:39:22;95452.44;;;19.09;49.43
13407;BME280;6774;48.208;10.766;2023-03-19T12:41:54;95450.56;;;18.92;50.23
13407;BME280;6774;48.208;10.766;2023-03-19T12:44:28;95450.63;;;18.81;48.26
13407;BME280;6774;48.208;10.766;2023-03-19T12:47:02;95444.44;;;19.25;49.31
13407;BME280;6774;48.208;10.766;2023-03-19T12:49:35;95447.91;;;19.26;51.24
13407;BME280;6774;48.208;10.766;2023-03-19T12:52:12;95441.03;;;19.13;50.08
13407;BME280;6774;48.208;10.766;2023-03-19T12:54:47;95437.72;;;19.23;50.90
13407;BME280;6774;48.208;10.766;2023-03-19T12:57:20;95432.78;;;19.31;47.74
13407;BME280;6774;48.208;10.766;2023-03-19T12:59:59;95431.31;;;19.57;49.82
13407;BME280;6774;48.208;10.766;2023-03-19T13:02:30;95430.66;;;19.50;47.97
13407;BME280;6774;48.208;10.766;2023-03-19T13:05:06;95423.06;;;18.80;50.66
13407;BME280;6774;48.208;10.766;2023-03-19T13:07:44;95431.28;;;18.90;51.34
13407;BME280;6774;48.208;10.766;2023-03-19T13:10:18;95428.28;;;18.87;49.00
13407;BME280;6774;48.208;10.766;2023-03-19T13:12:46;95432.00;;;18.86;48.75
13407;BME280;6774;48.208;10.766;2023-03-19T13:15:20;95420.41;;;18.23;49.92
13407;BME280;6774;48.208;10.766;2023-03-19T13:17:57;95427.13;;;18.66;48.99
13407;BME280;6774;48.208;10.766;2023-03-19T13:20:41;95421.50;;;18.96;49.75
13407;BME280;6774;48.208;10.766;2023-03-19T13:23:20;95419.69;;;19.01;49.00
13407;BME280;6774;48.208;10.766;2023-03-19T13:25:50;95426.34;;;19.32;47.68
13407;BME280;6774;48.208;10.766;2023-03-19T13:28:26;95420.84;;;19.06;47.88
13407;BME280;6774;48.208;10.766;2023-03-19T13:30:58;95416.13;;;18.96;48.50